sensor_id;sensor_type;location;lat;lon;timestamp;P1;durP1;ratioP1;P2;durP2;ratioP2
29712;SDS011;16623;53.632;10.016;2023-05-10T00:01:37;5.57;;;2.95;;
29712;SDS011;16623;53.632;10.016;2023-05-10T00:04:03;8.23;;;3.50;;
29712;SDS011;16623;53.632;10.016;2023-05-10T00:06:29;7.35;;;3.10;;
29712;SDS011;16623;53.632;10.016;2023-05-10T00:08:55;6.78;;;2.85;;
29712;SDS011;16623;53.632;10.016;2023-05-10T00:11:20;16.38;;;3.60;;
29712;SDS011;16623;53.632;10.016;2023-05-10T00:13:46;8.77;;;3.30;;
29712;SDS011;16623;53.632;10.016;2023-05-10T00:16:12;5.28;;;3.22;;
29712;SDS011;16623;53.632;10.016;2023-05-10T00:18:38;7.13;;;3.17;;
29712;SDS011;16623;53.632;10.016;2023-05-10T00:21:05;4.82;;;3.28;;
29712;SDS011;16623;53.632;10.016;2023-05-10T00:23:30;8.38;;;3.33;;
29712;SDS011;16623;53.632;10.016;2023-05-10T00:25:56;9.25;;;4.35;;
29712;SDS011;16623;53.632;10.016;2023-05-10T00:28:21;7.10;;;3.50;;
29712;SDS011;16623;53.632;10.016;2023-05-10T00:30:47;8.10;;;3.63;;
29712;SDS011;16623;53.632;10.016;2023-05-10T00:33:13;4.25;;;3.28;;
29712;SDS011;16623;53.632;10.016;2023-05-10T00:35:38;11.43;;;2.97;;
29712;SDS011;16623;53.632;10.016;2023-05-10T00:38:04;7.45;;;3.72;;
29712;SDS011;16623;53.632;10.016;2023-05-10T00:40:29;10.85;;;4.05;;
29712;SDS011;16623;53.632;10.016;2023-05-10T00:42:56;4.60;;;3.47;;
29712;SDS011;16623;53.632;10.016;2023-05-10T00:45:22;9.20;;;3.15;;
29712;SDS011;16623;53.632;10.016;2023-05-10T00:47:48;9.57;;;3.50;;
29712;SDS011;16623;53.632;10.016;2023-05-10T00:50:14;6.43;;;3.00;;
29712;SDS011;16623;53.632;10.016;2023-05-10T00:52:40;9.57;;;3.72;;
29712;SDS011;16623;53.632;10.016;2023-05-10T00:55:07;5.20;;;3.78;;
29712;SDS011;16623;53.632;10.016;2023-05-10T00:57:34;7.60;;;3.25;;
29712;SDS011;16623;53.632;10.016;2023-05-10T01:00:00;10.93;;;3.47;;
29712;SDS011;16623;53.632;10.016;2023-05-10T01:02:27;7.55;;;3.65;;
29712;SDS011;16623;53.632;10.016;2023-05-10T01:04:53;7.63;;;3.47;;
29712;SDS011;16623;53.632;10.016;2023-05-10T01:07:19;6.80;;;3.53;;
29712;SDS011;16623;53.632;10.016;2023-05-10T01:09:45;7.95;;;3.88;;
29712;SDS011;16623;53.632;10.016;2023-05-10T01:12:11;5.57;;;3.95;;
29712;SDS011;16623;53.632;10.016;2023-05-10T01:14:37;4.55;;;3.08;;
29712;SDS011;16623;53.632;10.016;2023-05-10T01:17:03;5.60;;;3.80;;
29712;SDS011;16623;53.632;10.016;2023-05-10T01:19:31;5.80;;;3.35;;
29712;SDS011;16623;53.632;10.016;2023-05-10T01:25:11;5.40;;;3.22;;
29712;SDS011;16623;53.632;10.016;2023-05-10T01:28:08;7.13;;;3.60;;
29712;SDS011;16623;53.632;10.016;2023-05-10T01:33:43;6.97;;;3.80;;
29712;SDS011;16623;53.632;10.016;2023-05-10T01:36:23;7.63;;;3.35;;
29712;SDS011;16623;53.632;10.016;2023-05-10T01:39:10;7.18;;;3.15;;
29712;SDS011;16623;53.632;10.016;2023-05-10T01:41:48;4.75;;;3.22;;
29712;SDS011;16623;53.632;10.016;2023-05-10T01:44:32;5.03;;;3.15;;
29712;SDS011;16623;53.632;10.016;2023-05-10T01:47:12;7.65;;;4.22;;
29712;SDS011;16623;53.632;10.016;2023-05-10T01:49:50;8.48;;;3.00;;
29712;SDS011;16623;53.632;10.016;2023-05-10T01:52:18;4.93;;;3.05;;
29712;SDS011;16623;53.632;10.016;2023-05-10T01:55:06;6.45;;;3.78;;
29712;SDS011;16623;53.632;10.016;2023-05-10T01:57:35;8.02;;;3.35;;
29712;SDS011;16623;53.632;10.016;2023-05-10T02:00:02;8.10;;;4.00;;
29712;SDS011;16623;53.632;10.016;2023-05-10T02:02:30;7.88;;;3.50;;
29712;SDS011;16623;53.632;10.016;2023-05-10T02:05:01;5.70;;;3.72;;
29712;SDS011;16623;53.632;10.016;2023-05-10T02:07:30;6.72;;;3.45;;
29712;SDS011;16623;53.632;10.016;2023-05-10T02:09:59;13.43;;;3.88;;
29712;SDS011;16623;53.632;10.016;2023-05-10T02:12:26;7.30;;;4.05;;
29712;SDS011;16623;53.632;10.016;2023-05-10T02:14:55;5.50;;;3.45;;
29712;SDS011;16623;53.632;10.016;2023-05-10T02:17:21;6.63;;;3.25;;
29712;SDS011;16623;53.632;10.016;2023-05-10T02:19:49;6.63;;;3.63;;
29712;SDS011;16623;53.632;10.016;2023-05-10T02:22:18;7.63;;;3.30;;
29712;SDS011;16623;53.632;10.016;2023-05-10T02:24:45;5.85;;;3.38;;
29712;SDS011;16623;53.632;10.016;2023-05-10T02:27:12;6.28;;;3.80;;
29712;SDS011;16623;53.632;10.016;2023-05-10T02:29:40;6.38;;;3.40;;
29712;SDS011;16623;53.632;10.016;2023-05-10T02:32:17;7.93;;;3.85;;
29712;SDS011;16623;53.632;10.016;2023-05-10T02:34:44;7.63;;;3.70;;
29712;SDS011;16623;53.632;10.016;2023-05-10T02:37:10;8.95;;;3.53;;
29712;SDS011;16623;53.632;10.016;2023-05-10T02:39:39;9.75;;;3.25;;
29712;SDS011;16623;53.632;10.016;2023-05-10T02:42:08;10.05;;;3.38;;
29712;SDS011;16623;53.632;10.016;2023-05-10T02:44:38;8.38;;;3.58;;
29712;SDS011;16623;53.632;10.016;2023-05-10T02:47:06;4.10;;;3.22;;
29712;SDS011;16623;53.632;10.016;2023-05-10T02:49:32;5.22;;;3.03;;
29712;SDS011;16623;53.632;10.016;2023-05-10T02:51:58;7.13;;;3.70;;
29712;SDS011;16623;53.632;10.016;2023-05-10T02:54:29;4.75;;;3.22;;
29712;SDS011;16623;53.632;10.016;2023-05-10T02:56:58;8.88;;;3.80;;
29712;SDS011;16623;53.632;10.016;2023-05-10T02:59:26;5.25;;;3.67;;
29712;SDS011;16623;53.632;10.016;2023-05-10T03:01:52;7.07;;;3.70;;
29712;SDS011;16623;53.632;10.016;2023-05-10T03:04:18;3.97;;;3.22;;
29712;SDS011;16623;53.632;10.016;2023-05-10T03:06:44;7.35;;;3.72;;
29712;SDS011;16623;53.632;10.016;2023-05-10T03:09:10;8.23;;;4.65;;
29712;SDS011;16623;53.632;10.016;2023-05-10T03:11:45;7.25;;;3.50;;
29712;SDS011;16623;53.632;10.016;2023-05-10T03:14:33;11.13;;;3.92;;
29712;SDS011;16623;53.632;10.016;2023-05-10T03:17:00;10.82;;;3.88;;
29712;SDS011;16623;53.632;10.016;2023-05-10T03:19:47;6.20;;;3.17;;
29712;SDS011;16623;53.632;10.016;2023-05-10T03:23:04;8.00;;;3.75;;
29712;SDS011;16623;53.632;10.016;2023-05-10T03:25:11;6.95;;;3.75;;
29712;SDS011;16623;53.632;10.016;2023-05-10T03:27:41;5.80;;;3.38;;
29712;SDS011;16623;53.632;10.016;2023-05-10T03:30:08;7.32;;;4.15;;
29712;SDS011;16623;53.632;10.016;2023-05-10T03:32:36;8.50;;;4.18;;
29712;SDS011;16623;53.632;10.016;2023-05-10T03:35:12;10.88;;;3.22;;
29712;SDS011;16623;53.632;10.016;2023-05-10T03:37:40;7.22;;;4.15;;
29712;SDS011;16623;53.632;10.016;2023-05-10T03:40:07;7.05;;;3.30;;
29712;SDS011;16623;53.632;10.016;2023-05-10T03:42:33;6.32;;;3.80;;
29712;SDS011;16623;53.632;10.016;2023-05-10T03:44:58;10.10;;;3.70;;
29712;SDS011;16623;53.632;10.016;2023-05-10T03:47:24;7.40;;;3.90;;
29712;SDS011;16623;53.632;10.016;2023-05-10T03:49:50;7.93;;;4.20;;
29712;SDS011;16623;53.632;10.016;2023-05-10T03:52:15;8.13;;;3.50;;
29712;SDS011;16623;53.632;10.016;2023-05-10T03:54:41;6.80;;;3.80;;
29712;SDS011;16623;53.632;10.016;2023-05-10T03:57:06;7.40;;;3.83;;
29712;SDS011;16623;53.632;10.016;2023-05-10T03:59:32;17.90;;;3.65;;
29712;SDS011;16623;53.632;10.016;2023-05-10T04:01:57;9.50;;;4.20;;
29712;SDS011;16623;53.632;10.016;2023-05-10T04:04:23;9.95;;;3.90;;
29712;SDS011;16623;53.632;10.016;2023-05-10T04:06:49;7.45;;;3.67;;
29712;SDS011;16623;53.632;10.016;2023-05-10T04:09:15;7.65;;;3.92;;
29712;SDS011;16623;53.632;10.016;2023-05-10T04:11:41;7.63;;;3.63;;
29712;SDS011;16623;53.632;10.016;2023-05-10T04:14:07;5.22;;;3.33;;
29712;SDS011;16623;53.632;10.016;2023-05-10T04:16:32;10.80;;;4.00;;
29712;SDS011;16623;53.632;10.016;2023-05-10T04:18:58;4.57;;;3.30;;
29712;SDS011;16623;53.632;10.016;2023-05-10T04:21:24;5.63;;;3.45;;
29712;SDS011;16623;53.632;10.016;2023-05-10T04:23:50;8.77;;;4.20;;
29712;SDS011;16623;53.632;10.016;2023-05-10T04:26:16;6.90;;;3.72;;
29712;SDS011;16623;53.632;10.016;2023-05-10T04:28:41;5.80;;;3.95;;
29712;SDS011;16623;53.632;10.016;2023-05-10T04:31:07;11.73;;;3.67;;
29712;SDS011;16623;53.632;10.016;2023-05-10T04:33:34;6.90;;;3.63;;
29712;SDS011;16623;53.632;10.016;2023-05-10T04:36:01;9.25;;;3.90;;
29712;SDS011;16623;53.632;10.016;2023-05-10T04:38:26;8.90;;;3.60;;
29712;SDS011;16623;53.632;10.016;2023-05-10T04:40:52;5.30;;;3.38;;
29712;SDS011;16623;53.632;10.016;2023-05-10T04:43:18;8.40;;;3.97;;
29712;SDS011;16623;53.632;10.016;2023-05-10T04:45:44;4.93;;;3.47;;
29712;SDS011;16623;53.632;10.016;2023-05-10T04:48:10;10.18;;;4.05;;
29712;SDS011;16623;53.632;10.016;2023-05-10T04:50:36;7.50;;;3.75;;
29712;SDS011;16623;53.632;10.016;2023-05-10T04:53:01;7.22;;;3.83;;
29712;SDS011;16623;53.632;10.016;2023-05-10T04:55:27;9.38;;;3.67;;
29712;SDS011;16623;53.632;10.016;2023-05-10T04:57:53;6.63;;;3.67;;
29712;SDS011;16623;53.632;10.016;2023-05-10T05:00:22;5.70;;;3.92;;
29712;SDS011;16623;53.632;10.016;2023-05-10T05:02:47;9.85;;;4.22;;
29712;SDS011;16623;53.632;10.016;2023-05-10T05:05:13;8.15;;;3.83;;
29712;SDS011;16623;53.632;10.016;2023-05-10T05:07:38;6.60;;;3.70;;
29712;SDS011;16623;53.632;10.016;2023-05-10T05:10:08;6.78;;;3.80;;
29712;SDS011;16623;53.632;10.016;2023-05-10T05:12:34;8.88;;;3.75;;
29712;SDS011;16623;53.632;10.016;2023-05-10T05:15:00;9.70;;;3.40;;
29712;SDS011;16623;53.632;10.016;2023-05-10T05:17:26;10.55;;;3.70;;
29712;SDS011;16623;53.632;10.016;2023-05-10T05:19:52;7.00;;;4.50;;
29712;SDS011;16623;53.632;10.016;2023-05-10T05:22:18;7.07;;;4.15;;
29712;SDS011;16623;53.632;10.016;2023-05-10T05:24:44;8.48;;;4.00;;
29712;SDS011;16623;53.632;10.016;2023-05-10T05:27:11;6.43;;;3.53;;
29712;SDS011;16623;53.632;10.016;2023-05-10T05:29:38;6.00;;;3.10;;
29712;SDS011;16623;53.632;10.016;2023-05-10T05:32:03;8.63;;;3.38;;
29712;SDS011;16623;53.632;10.016;2023-05-10T05:34:29;8.20;;;3.85;;
29712;SDS011;16623;53.632;10.016;2023-05-10T05:36:55;5.82;;;3.70;;
29712;SDS011;16623;53.632;10.016;2023-05-10T05:39:20;5.47;;;3.90;;
29712;SDS011;16623;53.632;10.016;2023-05-10T05:41:47;9.77;;;3.58;;
29712;SDS011;16623;53.632;10.016;2023-05-10T05:44:13;6.53;;;3.65;;
29712;SDS011;16623;53.632;10.016;2023-05-10T05:46:38;8.60;;;4.50;;
29712;SDS011;16623;53.632;10.016;2023-05-10T05:49:04;8.75;;;3.75;;
29712;SDS011;16623;53.632;10.016;2023-05-10T05:51:29;10.88;;;4.28;;
29712;SDS011;16623;53.632;10.016;2023-05-10T05:53:56;4.97;;;3.70;;
29712;SDS011;16623;53.632;10.016;2023-05-10T05:56:21;6.38;;;3.88;;
29712;SDS011;16623;53.632;10.016;2023-05-10T05:58:52;8.48;;;3.55;;
29712;SDS011;16623;53.632;10.016;2023-05-10T06:01:17;10.05;;;4.43;;
29712;SDS011;16623;53.632;10.016;2023-05-10T06:03:43;4.32;;;3.72;;
29712;SDS011;16623;53.632;10.016;2023-05-10T06:06:08;7.72;;;3.60;;
29712;SDS011;16623;53.632;10.016;2023-05-10T06:08:34;5.57;;;3.58;;
29712;SDS011;16623;53.632;10.016;2023-05-10T06:11:00;8.63;;;3.92;;
29712;SDS011;16623;53.632;10.016;2023-05-10T06:13:25;10.90;;;4.22;;
29712;SDS011;16623;53.632;10.016;2023-05-10T06:15:57;5.70;;;3.80;;
29712;SDS011;16623;53.632;10.016;2023-05-10T06:18:23;6.70;;;3.90;;
29712;SDS011;16623;53.632;10.016;2023-05-10T06:20:49;8.40;;;3.97;;
29712;SDS011;16623;53.632;10.016;2023-05-10T06:23:15;10.13;;;4.00;;
29712;SDS011;16623;53.632;10.016;2023-05-10T06:25:40;7.18;;;3.55;;
29712;SDS011;16623;53.632;10.016;2023-05-10T06:28:06;6.88;;;4.00;;
29712;SDS011;16623;53.632;10.016;2023-05-10T06:30:32;4.95;;;4.00;;
29712;SDS011;16623;53.632;10.016;2023-05-10T06:32:57;10.38;;;3.47;;
29712;SDS011;16623;53.632;10.016;2023-05-10T06:35:23;7.22;;;4.22;;
29712;SDS011;16623;53.632;10.016;2023-05-10T06:37:49;5.30;;;3.53;;
29712;SDS011;16623;53.632;10.016;2023-05-10T06:40:15;7.38;;;3.83;;
29712;SDS011;16623;53.632;10.016;2023-05-10T06:42:41;7.78;;;3.65;;
29712;SDS011;16623;53.632;10.016;2023-05-10T06:45:06;7.72;;;3.67;;
29712;SDS011;16623;53.632;10.016;2023-05-10T06:47:33;8.00;;;3.75;;
29712;SDS011;16623;53.632;10.016;2023-05-10T06:49:58;6.47;;;3.53;;
29712;SDS011;16623;53.632;10.016;2023-05-10T06:52:24;4.88;;;4.00;;
29712;SDS011;16623;53.632;10.016;2023-05-10T06:54:50;6.35;;;3.38;;
29712;SDS011;16623;53.632;10.016;2023-05-10T06:57:15;6.90;;;4.22;;
29712;SDS011;16623;53.632;10.016;2023-05-10T06:59:41;7.65;;;3.92;;
29712;SDS011;16623;53.632;10.016;2023-05-10T07:02:06;7.03;;;3.47;;
29712;SDS011;16623;53.632;10.016;2023-05-10T07:04:32;12.98;;;3.92;;
29712;SDS011;16623;53.632;10.016;2023-05-10T07:06:57;5.85;;;4.10;;
29712;SDS011;16623;53.632;10.016;2023-05-10T07:09:23;8.77;;;4.15;;
29712;SDS011;16623;53.632;10.016;2023-05-10T07:11:49;4.60;;;3.60;;
29712;SDS011;16623;53.632;10.016;2023-05-10T07:14:15;36.75;;;22.60;;
29712;SDS011;16623;53.632;10.016;2023-05-10T07:16:40;35.92;;;19.98;;
29712;SDS011;16623;53.632;10.016;2023-05-10T07:19:06;9.95;;;3.95;;
29712;SDS011;16623;53.632;10.016;2023-05-10T07:21:32;9.23;;;4.18;;
29712;SDS011;16623;53.632;10.016;2023-05-10T07:23:57;11.98;;;4.22;;
29712;SDS011;16623;53.632;10.016;2023-05-10T07:26:23;7.72;;;3.83;;
29712;SDS011;16623;53.632;10.016;2023-05-10T07:28:49;4.68;;;3.55;;
29712;SDS011;16623;53.632;10.016;2023-05-10T07:31:14;4.63;;;3.85;;
29712;SDS011;16623;53.632;10.016;2023-05-10T07:33:40;11.15;;;3.58;;
29712;SDS011;16623;53.632;10.016;2023-05-10T07:36:06;8.18;;;4.35;;
29712;SDS011;16623;53.632;10.016;2023-05-10T07:38:32;7.55;;;3.70;;
29712;SDS011;16623;53.632;10.016;2023-05-10T07:40:57;7.88;;;3.95;;
29712;SDS011;16623;53.632;10.016;2023-05-10T07:43:23;8.50;;;3.70;;
29712;SDS011;16623;53.632;10.016;2023-05-10T07:45:49;5.78;;;3.65;;
29712;SDS011;16623;53.632;10.016;2023-05-10T07:48:14;6.82;;;4.05;;
29712;SDS011;16623;53.632;10.016;2023-05-10T07:50:40;6.55;;;3.95;;
29712;SDS011;16623;53.632;10.016;2023-05-10T07:53:06;5.50;;;3.40;;
29712;SDS011;16623;53.632;10.016;2023-05-10T07:55:31;10.35;;;4.70;;
29712;SDS011;16623;53.632;10.016;2023-05-10T07:57:57;6.28;;;4.05;;
29712;SDS011;16623;53.632;10.016;2023-05-10T08:00:22;7.05;;;4.10;;
29712;SDS011;16623;53.632;10.016;2023-05-10T08:02:48;7.05;;;3.80;;
29712;SDS011;16623;53.632;10.016;2023-05-10T08:05:13;9.02;;;4.93;;
29712;SDS011;16623;53.632;10.016;2023-05-10T08:07:39;7.72;;;4.40;;
29712;SDS011;16623;53.632;10.016;2023-05-10T08:10:05;6.78;;;4.13;;
29712;SDS011;16623;53.632;10.016;2023-05-10T08:12:31;10.60;;;4.15;;
29712;SDS011;16623;53.632;10.016;2023-05-10T08:14:57;6.90;;;3.80;;
29712;SDS011;16623;53.632;10.016;2023-05-10T08:17:23;8.32;;;3.88;;
29712;SDS011;16623;53.632;10.016;2023-05-10T08:19:48;4.03;;;3.60;;
29712;SDS011;16623;53.632;10.016;2023-05-10T08:22:14;10.15;;;4.13;;
29712;SDS011;16623;53.632;10.016;2023-05-10T08:24:39;6.75;;;3.80;;
29712;SDS011;16623;53.632;10.016;2023-05-10T08:27:07;7.57;;;3.72;;
29712;SDS011;16623;53.632;10.016;2023-05-10T08:29:33;7.60;;;3.90;;
29712;SDS011;16623;53.632;10.016;2023-05-10T08:31:59;6.65;;;4.18;;
29712;SDS011;16623;53.632;10.016;2023-05-10T08:34:26;8.30;;;3.78;;
29712;SDS011;16623;53.632;10.016;2023-05-10T08:36:52;10.80;;;3.72;;
29712;SDS011;16623;53.632;10.016;2023-05-10T08:39:17;9.40;;;4.10;;
29712;SDS011;16623;53.632;10.016;2023-05-10T08:41:43;7.10;;;4.18;;
29712;SDS011;16623;53.632;10.016;2023-05-10T08:44:14;8.63;;;4.55;;
29712;SDS011;16623;53.632;10.016;2023-05-10T08:46:41;8.75;;;4.43;;
29712;SDS011;16623;53.632;10.016;2023-05-10T08:49:11;5.63;;;4.13;;
29712;SDS011;16623;53.632;10.016;2023-05-10T08:51:42;8.77;;;3.85;;
29712;SDS011;16623;53.632;10.016;2023-05-10T08:54:11;7.30;;;4.10;;
29712;SDS011;16623;53.632;10.016;2023-05-10T08:56:38;8.48;;;4.10;;
29712;SDS011;16623;53.632;10.016;2023-05-10T08:59:03;8.57;;;4.22;;
29712;SDS011;16623;53.632;10.016;2023-05-10T09:01:31;8.55;;;3.95;;
29712;SDS011;16623;53.632;10.016;2023-05-10T09:03:57;7.25;;;3.80;;
29712;SDS011;16623;53.632;10.016;2023-05-10T09:06:23;7.18;;;4.15;;
29712;SDS011;16623;53.632;10.016;2023-05-10T09:08:49;15.05;;;4.68;;
29712;SDS011;16623;53.632;10.016;2023-05-10T09:11:15;9.82;;;3.95;;
29712;SDS011;16623;53.632;10.016;2023-05-10T09:13:42;8.98;;;4.95;;
29712;SDS011;16623;53.632;10.016;2023-05-10T09:16:08;12.13;;;4.15;;
29712;SDS011;16623;53.632;10.016;2023-05-10T09:18:34;8.38;;;3.78;;
29712;SDS011;16623;53.632;10.016;2023-05-10T09:21:03;17.85;;;4.32;;
29712;SDS011;16623;53.632;10.016;2023-05-10T09:23:28;10.57;;;4.10;;
29712;SDS011;16623;53.632;10.016;2023-05-10T09:26:06;6.55;;;4.10;;
29712;SDS011;16623;53.632;10.016;2023-05-10T09:28:33;13.40;;;4.35;;
29712;SDS011;16623;53.632;10.016;2023-05-10T09:30:59;9.57;;;4.60;;
29712;SDS011;16623;53.632;10.016;2023-05-10T09:33:25;9.07;;;4.47;;
29712;SDS011;16623;53.632;10.016;2023-05-10T09:35:51;6.88;;;4.00;;
29712;SDS011;16623;53.632;10.016;2023-05-10T09:38:17;8.90;;;4.18;;
29712;SDS011;16623;53.632;10.016;2023-05-10T09:40:43;8.95;;;4.65;;
29712;SDS011;16623;53.632;10.016;2023-05-10T09:43:19;6.03;;;4.30;;
29712;SDS011;16623;53.632;10.016;2023-05-10T09:45:48;8.38;;;5.13;;
29712;SDS011;16623;53.632;10.016;2023-05-10T09:48:18;9.95;;;4.40;;
29712;SDS011;16623;53.632;10.016;2023-05-10T09:50:56;11.63;;;4.57;;
29712;SDS011;16623;53.632;10.016;2023-05-10T09:53:22;8.05;;;4.97;;
29712;SDS011;16623;53.632;10.016;2023-05-10T09:55:48;8.00;;;5.13;;
29712;SDS011;16623;53.632;10.016;2023-05-10T09:58:15;5.93;;;4.50;;
29712;SDS011;16623;53.632;10.016;2023-05-10T10:00:44;13.88;;;5.20;;
29712;SDS011;16623;53.632;10.016;2023-05-10T10:03:16;8.88;;;4.00;;
29712;SDS011;16623;53.632;10.016;2023-05-10T10:05:45;8.15;;;5.53;;
29712;SDS011;16623;53.632;10.016;2023-05-10T10:08:12;7.50;;;5.78;;
29712;SDS011;16623;53.632;10.016;2023-05-10T10:10:39;8.10;;;5.53;;
29712;SDS011;16623;53.632;10.016;2023-05-10T10:13:05;9.35;;;5.20;;
29712;SDS011;16623;53.632;10.016;2023-05-10T10:15:31;8.20;;;5.38;;
29712;SDS011;16623;53.632;10.016;2023-05-10T10:17:58;6.88;;;5.95;;
29712;SDS011;16623;53.632;10.016;2023-05-10T10:20:24;10.43;;;6.50;;
29712;SDS011;16623;53.632;10.016;2023-05-10T10:22:51;10.43;;;6.72;;
29712;SDS011;16623;53.632;10.016;2023-05-10T10:25:18;9.38;;;6.47;;
29712;SDS011;16623;53.632;10.016;2023-05-10T10:30:39;11.48;;;7.13;;
29712;SDS011;16623;53.632;10.016;2023-05-10T10:36:06;15.13;;;6.75;;
29712;SDS011;16623;53.632;10.016;2023-05-10T10:38:36;9.25;;;6.72;;
29712;SDS011;16623;53.632;10.016;2023-05-10T10:41:10;10.75;;;7.10;;
29712;SDS011;16623;53.632;10.016;2023-05-10T10:44:20;14.63;;;7.53;;
29712;SDS011;16623;53.632;10.016;2023-05-10T10:55:06;12.43;;;7.45;;
29712;SDS011;16623;53.632;10.016;2023-05-10T10:57:32;15.73;;;7.60;;
29712;SDS011;16623;53.632;10.016;2023-05-10T11:00:23;9.85;;;7.75;;
29712;SDS011;16623;53.632;10.016;2023-05-10T11:07:58;11.75;;;8.07;;
29712;SDS011;16623;53.632;10.016;2023-05-10T11:10:25;17.52;;;9.10;;
29712;SDS011;16623;53.632;10.016;2023-05-10T11:13:01;13.30;;;9.30;;
29712;SDS011;16623;53.632;10.016;2023-05-10T11:15:38;12.00;;;9.07;;
29712;SDS011;16623;53.632;10.016;2023-05-10T11:18:21;14.48;;;8.05;;
29712;SDS011;16623;53.632;10.016;2023-05-10T11:20:55;12.35;;;8.48;;
29712;SDS011;16623;53.632;10.016;2023-05-10T11:23:28;11.55;;;8.43;;
29712;SDS011;16623;53.632;10.016;2023-05-10T11:25:55;17.65;;;9.65;;
29712;SDS011;16623;53.632;10.016;2023-05-10T11:28:21;11.55;;;8.13;;
29712;SDS011;16623;53.632;10.016;2023-05-10T11:30:47;14.88;;;10.23;;
29712;SDS011;16623;53.632;10.016;2023-05-10T11:33:16;21.52;;;10.02;;
29712;SDS011;16623;53.632;10.016;2023-05-10T11:35:43;13.70;;;9.60;;
29712;SDS011;16623;53.632;10.016;2023-05-10T11:38:09;12.60;;;8.48;;
29712;SDS011;16623;53.632;10.016;2023-05-10T11:40:36;12.35;;;8.68;;
29712;SDS011;16623;53.632;10.016;2023-05-10T11:43:03;14.27;;;9.45;;
29712;SDS011;16623;53.632;10.016;2023-05-10T11:45:31;12.10;;;10.13;;
29712;SDS011;16623;53.632;10.016;2023-05-10T11:47:58;14.13;;;9.00;;
29712;SDS011;16623;53.632;10.016;2023-05-10T11:50:24;11.93;;;9.23;;
29712;SDS011;16623;53.632;10.016;2023-05-10T11:52:54;12.20;;;8.63;;
29712;SDS011;16623;53.632;10.016;2023-05-10T11:55:21;11.85;;;8.90;;
29712;SDS011;16623;53.632;10.016;2023-05-10T11:57:47;11.55;;;8.43;;
29712;SDS011;16623;53.632;10.016;2023-05-10T12:00:16;12.57;;;8.10;;
29712;SDS011;16623;53.632;10.016;2023-05-10T12:02:42;15.15;;;8.80;;
29712;SDS011;16623;53.632;10.016;2023-05-10T12:05:08;15.82;;;9.18;;
29712;SDS011;16623;53.632;10.016;2023-05-10T12:07:34;29.85;;;12.13;;
29712;SDS011;16623;53.632;10.016;2023-05-10T12:10:07;15.63;;;10.43;;
29712;SDS011;16623;53.632;10.016;2023-05-10T12:15:04;15.10;;;10.45;;
29712;SDS011;16623;53.632;10.016;2023-05-10T12:17:31;11.30;;;9.57;;
29712;SDS011;16623;53.632;10.016;2023-05-10T12:20:16;13.60;;;9.98;;
29712;SDS011;16623;53.632;10.016;2023-05-10T12:22:47;16.65;;;9.80;;
29712;SDS011;16623;53.632;10.016;2023-05-10T12:25:17;16.15;;;9.68;;
29712;SDS011;16623;53.632;10.016;2023-05-10T12:27:53;14.88;;;9.40;;
29712;SDS011;16623;53.632;10.016;2023-05-10T12:30:21;10.55;;;9.15;;
29712;SDS011;16623;53.632;10.016;2023-05-10T12:32:52;12.73;;;9.18;;
29712;SDS011;16623;53.632;10.016;2023-05-10T12:35:18;10.95;;;8.55;;
29712;SDS011;16623;53.632;10.016;2023-05-10T12:37:49;16.40;;;8.80;;
29712;SDS011;16623;53.632;10.016;2023-05-10T12:40:16;15.00;;;9.02;;
29712;SDS011;16623;53.632;10.016;2023-05-10T12:42:42;12.95;;;8.45;;
29712;SDS011;16623;53.632;10.016;2023-05-10T12:45:12;10.88;;;9.05;;
29712;SDS011;16623;53.632;10.016;2023-05-10T12:47:37;12.23;;;8.48;;
29712;SDS011;16623;53.632;10.016;2023-05-10T12:50:03;12.35;;;8.27;;
29712;SDS011;16623;53.632;10.016;2023-05-10T12:52:30;11.27;;;8.90;;
29712;SDS011;16623;53.632;10.016;2023-05-10T12:54:57;18.98;;;8.98;;
29712;SDS011;16623;53.632;10.016;2023-05-10T12:57:23;9.13;;;7.10;;
29712;SDS011;16623;53.632;10.016;2023-05-10T12:59:49;12.18;;;8.07;;
29712;SDS011;16623;53.632;10.016;2023-05-10T13:02:16;13.80;;;7.82;;
29712;SDS011;16623;53.632;10.016;2023-05-10T13:04:46;10.80;;;7.95;;
29712;SDS011;16623;53.632;10.016;2023-05-10T13:07:13;13.13;;;7.95;;
29712;SDS011;16623;53.632;10.016;2023-05-10T13:09:38;9.45;;;6.82;;
29712;SDS011;16623;53.632;10.016;2023-05-10T13:12:04;9.45;;;6.93;;
29712;SDS011;16623;53.632;10.016;2023-05-10T13:14:30;8.07;;;5.88;;
29712;SDS011;16623;53.632;10.016;2023-05-10T13:16:56;10.80;;;4.90;;
29712;SDS011;16623;53.632;10.016;2023-05-10T13:19:22;8.07;;;4.75;;
29712;SDS011;16623;53.632;10.016;2023-05-10T13:21:48;6.05;;;4.70;;
29712;SDS011;16623;53.632;10.016;2023-05-10T13:24:13;10.25;;;6.85;;
29712;SDS011;16623;53.632;10.016;2023-05-10T13:26:42;12.18;;;7.53;;
29712;SDS011;16623;53.632;10.016;2023-05-10T13:29:08;6.95;;;5.75;;
29712;SDS011;16623;53.632;10.016;2023-05-10T13:31:34;7.80;;;6.60;;
29712;SDS011;16623;53.632;10.016;2023-05-10T13:34:00;7.38;;;6.63;;
29712;SDS011;16623;53.632;10.016;2023-05-10T13:36:27;9.45;;;5.85;;
29712;SDS011;16623;53.632;10.016;2023-05-10T13:38:52;10.60;;;6.60;;
29712;SDS011;16623;53.632;10.016;2023-05-10T13:41:18;7.05;;;5.60;;
29712;SDS011;16623;53.632;10.016;2023-05-10T13:43:44;7.60;;;6.28;;
29712;SDS011;16623;53.632;10.016;2023-05-10T13:46:09;11.05;;;8.07;;
29712;SDS011;16623;53.632;10.016;2023-05-10T13:48:35;9.80;;;8.10;;
29712;SDS011;16623;53.632;10.016;2023-05-10T13:51:04;10.52;;;7.40;;
29712;SDS011;16623;53.632;10.016;2023-05-10T13:53:30;9.00;;;7.25;;
29712;SDS011;16623;53.632;10.016;2023-05-10T13:59:02;8.90;;;7.28;;
29712;SDS011;16623;53.632;10.016;2023-05-10T14:01:28;10.85;;;7.15;;
29712;SDS011;16623;53.632;10.016;2023-05-10T14:03:53;12.30;;;6.85;;
29712;SDS011;16623;53.632;10.016;2023-05-10T14:06:19;12.55;;;6.65;;
29712;SDS011;16623;53.632;10.016;2023-05-10T14:08:44;8.52;;;5.85;;
29712;SDS011;16623;53.632;10.016;2023-05-10T14:11:10;7.80;;;6.03;;
29712;SDS011;16623;53.632;10.016;2023-05-10T14:13:36;6.70;;;5.90;;
29712;SDS011;16623;53.632;10.016;2023-05-10T14:16:02;10.50;;;5.95;;
29712;SDS011;16623;53.632;10.016;2023-05-10T14:18:28;8.63;;;6.13;;
29712;SDS011;16623;53.632;10.016;2023-05-10T14:20:53;15.55;;;6.35;;
29712;SDS011;16623;53.632;10.016;2023-05-10T14:23:19;7.97;;;6.25;;
29712;SDS011;16623;53.632;10.016;2023-05-10T14:25:48;7.03;;;5.80;;
29712;SDS011;16623;53.632;10.016;2023-05-10T14:28:16;7.78;;;6.65;;
29712;SDS011;16623;53.632;10.016;2023-05-10T14:30:43;7.78;;;6.97;;
29712;SDS011;16623;53.632;10.016;2023-05-10T14:33:10;8.32;;;7.53;;
29712;SDS011;16623;53.632;10.016;2023-05-10T14:35:36;10.88;;;7.88;;
29712;SDS011;16623;53.632;10.016;2023-05-10T14:38:02;7.50;;;6.50;;
29712;SDS011;16623;53.632;10.016;2023-05-10T14:40:28;8.13;;;6.90;;
29712;SDS011;16623;53.632;10.016;2023-05-10T14:42:54;8.07;;;6.85;;
29712;SDS011;16623;53.632;10.016;2023-05-10T14:45:21;7.88;;;6.72;;
29712;SDS011;16623;53.632;10.016;2023-05-10T14:47:47;7.13;;;6.47;;
29712;SDS011;16623;53.632;10.016;2023-05-10T14:50:13;7.82;;;6.50;;
29712;SDS011;16623;53.632;10.016;2023-05-10T14:52:38;7.32;;;6.30;;
29712;SDS011;16623;53.632;10.016;2023-05-10T14:55:04;7.68;;;6.65;;
29712;SDS011;16623;53.632;10.016;2023-05-10T14:57:30;6.60;;;6.00;;
29712;SDS011;16623;53.632;10.016;2023-05-10T14:59:57;8.02;;;5.95;;
29712;SDS011;16623;53.632;10.016;2023-05-10T15:02:23;8.88;;;5.85;;
29712;SDS011;16623;53.632;10.016;2023-05-10T15:04:48;7.85;;;6.00;;